Time;durP1;ratioP1;P1;durP2;ratioP2;P2;SDS_P1;SDS_P2;PMS_P1;PMS_P2;Temp;Humidity;BMP_temperature;BMP_pressure;BME280_temperature;BME280_humidity;BME280_pressure;Samples;Min_cycle;Max_cycle;Signal;HPM_P1;HPM_P2
2022/10/23 00:00:02;;;;;;;;;;;19.90;99.90;;;;;;5035721;28;20013;-74
2022/10/23 00:02:28;;;;;;;;;;;19.80;99.90;;;;;;5043947;28;19920;-78
2022/10/23 00:04:55;;;;;;;;;;;19.70;99.90;;;;;;5050915;28;19928;-78
2022/10/23 00:07:22;;;;;;;;;;;19.70;99.90;;;;;;5045208;28;20298;-76
2022/10/23 00:09:48;;;;;;;;;;;19.70;99.90;;;;;;5050189;28;20383;-78
2022/10/23 00:12:15;;;;;;;;;;;19.70;99.90;;;;;;5046131;28;19913;-77
2022/10/23 00:14:42;;;;;;;;;;;19.60;99.90;;;;;;5034816;28;19913;-76
2022/10/23 00:17:11;;;;;;;;;;;19.60;99.90;;;;;;5050005;28;19913;-79
2022/10/23 00:19:37;;;;;;;;;;;19.60;99.90;;;;;;5052966;28;19913;-80
2022/10/23 00:22:04;;;;;;;;;;;19.70;99.90;;;;;;5047357;28;20734;-76
2022/10/23 00:24:31;;;;;;;;;;;19.80;99.90;;;;;;5044518;28;19925;-80
2022/10/23 00:26:57;;;;;;;;;;;20.00;99.90;;;;;;5048251;28;19947;-79
2022/10/23 00:29:24;;;;;;;;;;;20.20;99.90;;;;;;5039243;28;19924;-79
2022/10/23 00:31:51;;;;;;;;;;;20.40;99.90;;;;;;5051434;28;20371;-74
2022/10/23 00:34:18;;;;;;;;;;;20.50;99.90;;;;;;5042340;28;19909;-79
2022/10/23 00:36:44;;;;;;;;;;;20.70;99.90;;;;;;5049711;28;20011;-76
2022/10/23 00:39:11;;;;;;;;;;;20.90;99.90;;;;;;5032607;28;19909;-80
2022/10/23 00:41:38;;;;;;;;;;;21.10;99.90;;;;;;5033531;28;20667;-78
2022/10/23 00:44:07;;;;;;;;;;;21.20;99.90;;;;;;5046323;28;20641;-78
2022/10/23 00:46:35;;;;;;;;;;;21.40;99.90;;;;;;5042828;28;19920;-77
2022/10/23 00:49:03;;;;;;;;;;;21.70;99.90;;;;;;5032356;28;20283;-75
2022/10/23 00:51:33;;;;;;;;;;;22.00;99.90;;;;;;5038659;28;20374;-75
2022/10/23 00:54:00;;;;;;;;;;;22.10;99.90;;;;;;5052016;28;19924;-79
2022/10/23 00:56:27;;;;;;;;;;;22.30;99.90;;;;;;5051287;28;19909;-76
2022/10/23 00:58:53;;;;;;;;;;;22.40;99.90;;;;;;5042113;28;19959;-77
2022/10/23 01:01:21;;;;;;;;;;;22.50;99.90;;;;;;5048696;28;19917;-77
2022/10/23 01:03:48;;;;;;;;;;;22.50;99.90;;;;;;5051303;28;20371;-78
2022/10/23 01:06:21;;;;;;;;;;;22.50;99.90;;;;;;5051370;28;19976;-77
2022/10/23 01:08:55;;;;;;;;;;;22.50;99.90;;;;;;5042007;28;19920;-78
2022/10/23 01:11:42;;;;;;;;;;;22.50;99.90;;;;;;5040045;28;20371;-75
2022/10/23 01:14:11;;;;;;;;;;;22.40;99.90;;;;;;5037342;28;19955;-78
2022/10/23 01:16:44;;;;;;;;;;;22.30;99.90;;;;;;5047409;28;19913;-76
2022/10/23 01:19:24;;;;;;;;;;;22.20;99.90;;;;;;5039677;28;20363;-77
2022/10/23 01:22:11;;;;;;;;;;;22.20;99.90;;;;;;5040527;28;19923;-75
2022/10/23 01:24:41;;;;;;;;;;;22.20;99.90;;;;;;5035724;28;19955;-76
2022/10/23 01:27:13;;;;;;;;;;;22.20;99.90;;;;;;5050399;28;20375;-75
2022/10/23 01:29:51;;;;;;;;;;;22.30;99.90;;;;;;5039463;28;19947;-76
2022/10/23 01:32:24;;;;;;;;;;;22.40;99.90;;;;;;5054750;28;19920;-76
2022/10/23 01:34:58;;;;;;;;;;;22.60;99.90;;;;;;5055866;28;20267;-75
2022/10/23 01:37:45;;;;;;;;;;;23.00;99.90;;;;;;5046700;28;19913;-79
2022/10/23 01:40:17;;;;;;;;;;;23.50;99.90;;;;;;5035242;28;19917;-78
2022/10/23 01:42:46;;;;;;;;;;;23.70;99.90;;;;;;5045444;28;19917;-77
2022/10/23 01:45:18;;;;;;;;;;;23.80;99.90;;;;;;5055595;28;19986;-77
2022/10/23 01:47:45;;;;;;;;;;;23.90;99.90;;;;;;5044396;28;20482;-77
2022/10/23 01:50:13;;;;;;;;;;;23.90;99.90;;;;;;5037721;28;19920;-78
2022/10/23 01:52:40;;;;;;;;;;;23.90;99.90;;;;;;5046902;28;20372;-78
2022/10/23 01:55:09;;;;;;;;;;;24.00;99.90;;;;;;5055551;28;19909;-76
2022/10/23 01:57:36;;;;;;;;;;;24.10;99.90;;;;;;5043694;28;19939;-79
2022/10/23 02:00:06;;;;;;;;;;;24.30;99.90;;;;;;5051142;28;19917;-77
2022/10/23 02:02:33;;;;;;;;;;;24.40;99.90;;;;;;5044728;28;20362;-79
2022/10/23 02:05:02;;;;;;;;;;;24.40;99.90;;;;;;5053754;28;19924;-79
2022/10/23 02:07:29;;;;;;;;;;;24.40;99.90;;;;;;5046267;28;19992;-79
2022/10/23 02:09:56;;;;;;;;;;;24.50;99.90;;;;;;5035255;28;19930;-79
2022/10/23 02:12:38;;;;;;;;;;;24.40;99.90;;;;;;5036175;28;19959;-76
2022/10/23 02:15:05;;;;;;;;;;;24.30;99.90;;;;;;5035350;28;19909;-79
2022/10/23 02:17:37;;;;;;;;;;;24.10;99.90;;;;;;5041814;28;19925;-77
2022/10/23 02:20:16;;;;;;;;;;;23.90;99.90;;;;;;5035066;28;19927;-76
2022/10/23 02:22:48;;;;;;;;;;;23.70;99.90;;;;;;5052222;28;19952;-77
2022/10/23 02:25:20;;;;;;;;;;;23.50;99.90;;;;;;5053823;28;19986;-79
2022/10/23 02:27:48;;;;;;;;;;;23.30;99.90;;;;;;5050605;28;20008;-79
2022/10/23 02:30:16;;;;;;;;;;;23.20;99.90;;;;;;5054943;28;20008;-79
2022/10/23 02:32:48;;;;;;;;;;;23.20;99.90;;;;;;5043234;28;19914;-78
2022/10/23 02:35:15;;;;;;;;;;;23.00;99.90;;;;;;5050843;28;20029;-79
2022/10/23 02:37:41;;;;;;;;;;;22.90;99.90;;;;;;5051088;28;19941;-79
2022/10/23 02:40:09;;;;;;;;;;;22.80;99.90;;;;;;5050328;28;19916;-79
2022/10/23 02:42:42;;;;;;;;;;;22.70;99.90;;;;;;5035422;28;20013;-79
2022/10/23 02:45:11;;;;;;;;;;;22.70;99.90;;;;;;5034395;28;20017;-77
2022/10/23 02:47:38;;;;;;;;;;;22.80;99.90;;;;;;5035496;28;20015;-78
2022/10/23 02:50:07;;;;;;;;;;;22.80;99.90;;;;;;5051594;28;19917;-78
2022/10/23 02:52:42;;;;;;;;;;;22.90;99.90;;;;;;5044791;28;19963;-79
2022/10/23 02:55:21;;;;;;;;;;;23.00;99.90;;;;;;5034322;28;19916;-79
2022/10/23 02:57:51;;;;;;;;;;;23.00;99.90;;;;;;5036296;28;20307;-77
2022/10/23 03:00:19;;;;;;;;;;;23.00;99.90;;;;;;5034389;28;19916;-79
2022/10/23 03:03:23;;;;;;;;;;;23.10;99.90;;;;;;5037874;28;19921;-80
2022/10/23 03:05:50;;;;;;;;;;;23.10;99.90;;;;;;4972844;28;20336;-79
2022/10/23 03:08:17;;;;;;;;;;;23.30;99.90;;;;;;4975324;28;20008;-79
2022/10/23 03:10:43;;;;;;;;;;;23.40;99.90;;;;;;4985550;28;20287;-78
2022/10/23 03:13:10;;;;;;;;;;;23.50;99.90;;;;;;5035013;28;19913;-79
2022/10/23 03:15:37;;;;;;;;;;;23.60;99.90;;;;;;5034035;28;19939;-75
2022/10/23 03:18:04;;;;;;;;;;;23.70;99.90;;;;;;5038432;28;19959;-79
2022/10/23 03:20:30;;;;;;;;;;;23.70;99.90;;;;;;5033784;28;19916;-78
2022/10/23 03:22:57;;;;;;;;;;;23.80;99.90;;;;;;5034601;28;19917;-76
2022/10/23 03:25:24;;;;;;;;;;;23.80;99.90;;;;;;5048064;28;19921;-79
2022/10/23 03:27:50;;;;;;;;;;;23.80;99.90;;;;;;5041508;28;19971;-79
2022/10/23 03:30:17;;;;;;;;;;;23.80;99.90;;;;;;5045624;28;20010;-79
2022/10/23 03:32:44;;;;;;;;;;;23.60;99.90;;;;;;5049455;28;20007;-79
2022/10/23 03:35:11;;;;;;;;;;;23.40;99.90;;;;;;5033663;28;19909;-80
2022/10/23 03:37:37;;;;;;;;;;;23.30;99.90;;;;;;5034652;28;19928;-79
2022/10/23 03:40:04;;;;;;;;;;;23.20;99.90;;;;;;5049581;28;19919;-80
2022/10/23 03:42:31;;;;;;;;;;;23.20;99.90;;;;;;5044061;28;19968;-80
2022/10/23 03:44:57;;;;;;;;;;;23.20;99.90;;;;;;5039813;28;19921;-80
2022/10/23 03:47:24;;;;;;;;;;;23.20;99.90;;;;;;5044995;28;20436;-78
2022/10/23 03:49:51;;;;;;;;;;;23.20;99.90;;;;;;5033268;28;19960;-80
2022/10/23 03:52:18;;;;;;;;;;;23.20;99.90;;;;;;5039509;28;19921;-77
2022/10/23 03:54:44;;;;;;;;;;;23.20;99.90;;;;;;5053275;28;19921;-74
2022/10/23 03:57:11;;;;;;;;;;;23.40;99.90;;;;;;5046728;28;19913;-79
2022/10/23 03:59:38;;;;;;;;;;;23.50;99.90;;;;;;5049591;28;19913;-79
2022/10/23 04:02:04;;;;;;;;;;;23.70;99.90;;;;;;5036899;28;19920;-78
2022/10/23 04:04:31;;;;;;;;;;;23.70;99.90;;;;;;5042003;28;19925;-75
2022/10/23 04:06:57;;;;;;;;;;;23.60;99.90;;;;;;5052642;28;19924;-78
2022/10/23 04:09:24;;;;;;;;;;;23.80;99.90;;;;;;5053168;28;20381;-79
2022/10/23 04:11:51;;;;;;;;;;;23.90;99.90;;;;;;5048976;28;19932;-78
2022/10/23 04:14:17;;;;;;;;;;;23.80;99.90;;;;;;5032986;28;20367;-79
2022/10/23 04:16:44;;;;;;;;;;;23.80;99.90;;;;;;5046793;28;19964;-80
2022/10/23 04:19:11;;;;;;;;;;;23.90;99.90;;;;;;5032983;28;19913;-80
2022/10/23 04:21:37;;;;;;;;;;;24.00;99.90;;;;;;5033704;28;19909;-79
2022/10/23 04:24:04;;;;;;;;;;;24.00;99.90;;;;;;5037595;28;19916;-77
2022/10/23 04:26:31;;;;;;;;;;;24.00;99.90;;;;;;5050934;28;20276;-79
2022/10/23 04:28:57;;;;;;;;;;;23.90;99.90;;;;;;5036345;28;19963;-72
2022/10/23 04:31:24;;;;;;;;;;;23.60;99.90;;;;;;5051306;28;19916;-78
2022/10/23 04:33:51;;;;;;;;;;;23.30;99.90;;;;;;5052175;28;19909;-76
2022/10/23 04:36:17;;;;;;;;;;;23.00;99.90;;;;;;5052573;28;20345;-77
2022/10/23 04:38:44;;;;;;;;;;;22.70;99.90;;;;;;5038610;28;19924;-83
2022/10/23 04:41:11;;;;;;;;;;;22.50;99.90;;;;;;5051496;28;20370;-77
2022/10/23 04:43:37;;;;;;;;;;;22.30;99.90;;;;;;5034343;28;20291;-77
2022/10/23 04:46:04;;;;;;;;;;;22.10;99.90;;;;;;5032066;28;19931;-76
2022/10/23 04:48:31;;;;;;;;;;;21.90;99.90;;;;;;5033610;28;19947;-78
2022/10/23 04:50:58;;;;;;;;;;;21.70;99.90;;;;;;5049886;28;20424;-79
2022/10/23 04:53:25;;;;;;;;;;;21.50;99.90;;;;;;5050431;28;20370;-79
2022/10/23 04:55:53;;;;;;;;;;;21.40;99.90;;;;;;5042978;28;19921;-77
2022/10/23 04:58:19;;;;;;;;;;;21.20;99.90;;;;;;5033017;28;19935;-79
2022/10/23 05:00:47;;;;;;;;;;;21.20;99.90;;;;;;5032184;28;19916;-78
2022/10/23 05:03:13;;;;;;;;;;;21.00;99.90;;;;;;5033147;28;19917;-77
2022/10/23 05:05:41;;;;;;;;;;;20.90;99.90;;;;;;5044785;28;19928;-77
2022/10/23 05:08:07;;;;;;;;;;;20.80;99.90;;;;;;5050328;28;19917;-74
2022/10/23 05:10:34;;;;;;;;;;;20.60;99.90;;;;;;5052154;28;19917;-75
2022/10/23 05:13:01;;;;;;;;;;;20.50;99.90;;;;;;5038863;28;19914;-77
2022/10/23 05:15:28;;;;;;;;;;;20.40;99.90;;;;;;5032117;28;20024;-78
2022/10/23 05:17:56;;;;;;;;;;;20.20;99.90;;;;;;5032781;28;20008;-74
2022/10/23 05:20:26;;;;;;;;;;;20.00;99.90;;;;;;5047866;28;19913;-77
2022/10/23 05:22:53;;;;;;;;;;;19.90;99.90;;;;;;5035353;28;19913;-73
2022/10/23 05:25:20;;;;;;;;;;;19.70;99.90;;;;;;5052022;28;19928;-78
2022/10/23 05:27:47;;;;;;;;;;;19.60;99.90;;;;;;5040710;28;19913;-76
2022/10/23 05:30:14;;;;;;;;;;;19.50;99.90;;;;;;5032923;28;20120;-74
2022/10/23 05:32:40;;;;;;;;;;;19.50;99.90;;;;;;5040420;28;19916;-74
2022/10/23 05:35:12;;;;;;;;;;;19.50;99.90;;;;;;5033200;28;20350;-72
2022/10/23 05:37:40;;;;;;;;;;;19.40;99.90;;;;;;5034016;28;19917;-80
2022/10/23 05:40:07;;;;;;;;;;;19.40;99.90;;;;;;5048277;28;19986;-75
2022/10/23 05:42:34;;;;;;;;;;;19.40;99.90;;;;;;5033079;28;19935;-75
2022/10/23 05:45:00;;;;;;;;;;;19.30;99.90;;;;;;5051678;28;19947;-75
2022/10/23 05:47:27;;;;;;;;;;;19.30;99.90;;;;;;5043001;28;19939;-72
2022/10/23 05:49:53;;;;;;;;;;;19.30;99.90;;;;;;5031707;28;19909;-73
2022/10/23 05:52:20;;;;;;;;;;;19.30;99.90;;;;;;5041122;28;20347;-75
2022/10/23 05:54:47;;;;;;;;;;;19.30;99.90;;;;;;5049919;28;19912;-77
2022/10/23 05:57:13;;;;;;;;;;;19.30;99.90;;;;;;5040653;28;19913;-78
2022/10/23 05:59:40;;;;;;;;;;;19.30;99.90;;;;;;5048211;28;19909;-78
2022/10/23 06:02:07;;;;;;;;;;;19.30;99.90;;;;;;5032019;28;19917;-74
2022/10/23 06:04:34;;;;;;;;;;;19.40;99.90;;;;;;5040749;28;20295;-74
2022/10/23 06:07:01;;;;;;;;;;;19.30;99.90;;;;;;5051775;28;19913;-75
2022/10/23 06:09:27;;;;;;;;;;;19.30;99.90;;;;;;5054332;28;19939;-73
2022/10/23 06:11:54;;;;;;;;;;;19.20;99.90;;;;;;5052082;28;20470;-76
2022/10/23 06:14:21;;;;;;;;;;;19.20;99.90;;;;;;5049793;28;19909;-77
2022/10/23 06:16:47;;;;;;;;;;;19.20;99.90;;;;;;5051772;28;20355;-77
2022/10/23 06:19:14;;;;;;;;;;;19.20;99.90;;;;;;5035210;28;19913;-78
2022/10/23 06:21:41;;;;;;;;;;;19.10;99.90;;;;;;5035621;28;19928;-74
2022/10/23 06:24:07;;;;;;;;;;;19.10;99.90;;;;;;5034806;28;19920;-75
2022/10/23 06:26:34;;;;;;;;;;;19.10;99.90;;;;;;5052029;28;19924;-76
2022/10/23 06:29:01;;;;;;;;;;;19.00;99.90;;;;;;5046222;28;19913;-77
2022/10/23 06:31:27;;;;;;;;;;;19.00;99.90;;;;;;5041787;28;19916;-75
2022/10/23 06:33:55;;;;;;;;;;;19.10;99.90;;;;;;5043253;28;20383;-76
2022/10/23 06:36:21;;;;;;;;;;;19.10;99.90;;;;;;5034421;28;19947;-76
2022/10/23 06:38:48;;;;;;;;;;;19.10;99.90;;;;;;5053054;28;20375;-75
2022/10/23 06:41:16;;;;;;;;;;;19.10;99.90;;;;;;5053856;28;20019;-77
2022/10/23 06:43:43;;;;;;;;;;;19.10;99.90;;;;;;5035678;28;19913;-74
2022/10/23 06:46:10;;;;;;;;;;;19.10;99.90;;;;;;5034102;28;20337;-77
2022/10/23 06:48:36;;;;;;;;;;;19.10;99.90;;;;;;5043402;28;19963;-76
2022/10/23 06:51:04;;;;;;;;;;;19.10;99.90;;;;;;5054557;28;19909;-76
2022/10/23 06:53:31;;;;;;;;;;;19.20;99.90;;;;;;5037191;28;19917;-79
2022/10/23 06:55:59;;;;;;;;;;;19.10;99.90;;;;;;5034317;28;20011;-78
2022/10/23 06:58:25;;;;;;;;;;;19.10;99.90;;;;;;5049236;28;20290;-78
2022/10/23 07:00:52;;;;;;;;;;;19.20;99.90;;;;;;5052792;28;20325;-79
2022/10/23 07:03:19;;;;;;;;;;;19.20;99.90;;;;;;5038470;28;19995;-73
2022/10/23 07:05:48;;;;;;;;;;;19.10;99.90;;;;;;5037662;28;19931;-75
2022/10/23 07:08:15;;;;;;;;;;;19.20;99.90;;;;;;5035048;28;19924;-77
2022/10/23 07:10:42;;;;;;;;;;;19.10;99.90;;;;;;5040231;28;19913;-71
2022/10/23 07:13:09;;;;;;;;;;;19.10;99.90;;;;;;5039606;28;19914;-76
2022/10/23 07:15:36;;;;;;;;;;;19.10;99.90;;;;;;5034018;28;20280;-72
2022/10/23 07:18:02;;;;;;;;;;;19.10;99.90;;;;;;5042784;28;19920;-71
2022/10/23 07:20:29;;;;;;;;;;;19.00;99.90;;;;;;5053775;28;20003;-72
2022/10/23 07:22:56;;;;;;;;;;;19.00;99.90;;;;;;5050957;28;19932;-75
2022/10/23 07:25:23;;;;;;;;;;;19.00;99.90;;;;;;5039696;28;20368;-71
2022/10/23 07:27:50;;;;;;;;;;;19.00;99.90;;;;;;5034290;28;19955;-71
2022/10/23 07:30:17;;;;;;;;;;;19.00;99.90;;;;;;5033691;28;19920;-72
2022/10/23 07:32:44;;;;;;;;;;;19.00;99.90;;;;;;5023551;28;20282;-71
2022/10/23 07:35:11;;;;;;;;;;;19.00;99.90;;;;;;5033745;28;20364;-72
2022/10/23 07:37:38;;;;;;;;;;;18.90;99.90;;;;;;5034867;28;19920;-74
2022/10/23 07:40:06;;;;;;;;;;;18.90;99.90;;;;;;5049643;28;19913;-77
2022/10/23 07:42:32;;;;;;;;;;;18.90;99.90;;;;;;5044577;28;20055;-76
2022/10/23 07:44:59;;;;;;;;;;;18.90;99.90;;;;;;5045017;28;19916;-72
2022/10/23 07:47:26;;;;;;;;;;;18.80;99.90;;;;;;5044652;28;19924;-73
2022/10/23 07:49:52;;;;;;;;;;;18.80;99.90;;;;;;5033314;28;20363;-77
2022/10/23 07:52:19;;;;;;;;;;;18.80;99.90;;;;;;5040545;28;20426;-72
2022/10/23 07:54:46;;;;;;;;;;;18.80;99.90;;;;;;5053294;28;19920;-71
2022/10/23 07:57:12;;;;;;;;;;;18.80;99.90;;;;;;5052083;28;19918;-70
2022/10/23 07:59:39;;;;;;;;;;;18.70;99.90;;;;;;5052168;28;19944;-80
2022/10/23 08:02:10;;;;;;;;;;;18.70;99.90;;;;;;5047239;28;20287;-77
2022/10/23 08:04:36;;;;;;;;;;;18.70;99.90;;;;;;5043076;28;19917;-79
2022/10/23 08:07:03;;;;;;;;;;;18.70;99.90;;;;;;5048351;28;20291;-76
2022/10/23 08:09:30;;;;;;;;;;;18.70;99.90;;;;;;5033406;28;19913;-75
2022/10/23 08:11:57;;;;;;;;;;;18.60;99.90;;;;;;5039768;28;19914;-78
2022/10/23 08:14:23;;;;;;;;;;;18.60;99.90;;;;;;5047669;28;19920;-79
2022/10/23 08:16:50;;;;;;;;;;;18.60;99.90;;;;;;5049974;28;20313;-78
2022/10/23 08:19:16;;;;;;;;;;;18.60;99.90;;;;;;5034037;28;19913;-78
2022/10/23 08:21:43;;;;;;;;;;;18.60;99.90;;;;;;5035341;28;20318;-78
2022/10/23 08:24:12;;;;;;;;;;;18.60;99.90;;;;;;5034778;28;20346;-76
2022/10/23 08:26:39;;;;;;;;;;;18.60;99.90;;;;;;5035583;28;19922;-78
2022/10/23 08:29:06;;;;;;;;;;;18.50;99.90;;;;;;5053495;28;19912;-78
2022/10/23 08:31:32;;;;;;;;;;;18.50;99.90;;;;;;5051031;28;20266;-77
2022/10/23 08:33:59;;;;;;;;;;;18.50;99.90;;;;;;5048546;28;19913;-79
2022/10/23 08:36:27;;;;;;;;;;;18.50;99.90;;;;;;5052581;28;19912;-78
2022/10/23 08:38:54;;;;;;;;;;;18.50;99.90;;;;;;5052232;28;19956;-78
2022/10/23 08:41:41;;;;;;;;;;;18.50;99.90;;;;;;5053243;28;20464;-76
2022/10/23 08:44:26;;;;;;;;;;;18.50;99.90;;;;;;5032665;28;19920;-77
2022/10/23 08:47:00;;;;;;;;;;;18.50;99.90;;;;;;5036985;28;20379;-78
2022/10/23 08:49:34;;;;;;;;;;;18.50;99.90;;;;;;5052491;28;20393;-78
2022/10/23 08:52:03;;;;;;;;;;;18.50;99.90;;;;;;5047205;28;19920;-77
2022/10/23 08:54:39;;;;;;;;;;;18.40;99.90;;;;;;5041821;28;19909;-78
2022/10/23 08:57:12;;;;;;;;;;;18.40;99.90;;;;;;5040324;28;19913;-77
2022/10/23 08:59:43;;;;;;;;;;;18.40;99.90;;;;;;5033012;28;19909;-79
2022/10/23 09:02:22;;;;;;;;;;;18.40;99.90;;;;;;5033872;28;19909;-78
2022/10/23 09:04:50;;;;;;;;;;;18.40;99.90;;;;;;5041162;28;19917;-78
2022/10/23 09:07:28;;;;;;;;;;;18.40;99.90;;;;;;5051717;28;19909;-77
2022/10/23 09:09:55;;;;;;;;;;;18.40;99.90;;;;;;5047705;28;20007;-78
2022/10/23 09:12:23;;;;;;;;;;;18.40;99.90;;;;;;5038936;28;19909;-78
2022/10/23 09:15:09;;;;;;;;;;;18.40;99.90;;;;;;5032059;28;19920;-77
2022/10/23 09:17:38;;;;;;;;;;;18.40;99.90;;;;;;5032760;28;19916;-77
2022/10/23 09:20:11;;;;;;;;;;;18.40;99.90;;;;;;5043431;28;20019;-76
2022/10/23 09:22:38;;;;;;;;;;;18.40;99.90;;;;;;5040136;28;20364;-77
2022/10/23 09:25:19;;;;;;;;;;;18.40;99.90;;;;;;5050940;28;19929;-77
2022/10/23 09:27:47;;;;;;;;;;;18.40;99.90;;;;;;5040082;28;20007;-77
2022/10/23 09:30:24;;;;;;;;;;;18.40;99.90;;;;;;5031439;28;19952;-78
2022/10/23 09:32:51;;;;;;;;;;;18.40;99.90;;;;;;5032457;28;19917;-78
2022/10/23 09:35:25;;;;;;;;;;;18.40;99.90;;;;;;5031681;28;20004;-77
2022/10/23 09:37:54;;;;;;;;;;;18.40;99.90;;;;;;5040732;28;19913;-79
2022/10/23 09:40:25;;;;;;;;;;;18.40;99.90;;;;;;5051366;28;19920;-78
2022/10/23 09:42:54;;;;;;;;;;;18.30;99.90;;;;;;5042109;28;19913;-77
2022/10/23 09:45:32;;;;;;;;;;;18.40;99.90;;;;;;5040722;28;20023;-79
2022/10/23 09:48:24;;;;;;;;;;;18.30;99.90;;;;;;5042211;28;19967;-76
2022/10/23 09:50:55;;;;;;;;;;;18.30;99.90;;;;;;5032544;28;19917;-78
2022/10/23 09:53:26;;;;;;;;;;;18.30;99.90;;;;;;5036051;28;19943;-77
2022/10/23 09:55:54;;;;;;;;;;;18.30;99.90;;;;;;5045014;28;19909;-76
2022/10/23 09:58:29;;;;;;;;;;;18.30;99.90;;;;;;5039034;28;19923;-78
2022/10/23 10:00:56;;;;;;;;;;;18.40;99.90;;;;;;5034871;28;19913;-77
2022/10/23 10:03:23;;;;;;;;;;;18.30;99.90;;;;;;5046788;28;19913;-75
2022/10/23 10:06:00;;;;;;;;;;;18.30;99.90;;;;;;5052592;28;19924;-76
2022/10/23 10:08:32;;;;;;;;;;;18.30;99.90;;;;;;5038274;28;19939;-75
2022/10/23 10:11:07;;;;;;;;;;;18.30;99.90;;;;;;5034697;28;19909;-77
2022/10/23 10:13:36;;;;;;;;;;;18.30;99.90;;;;;;5052192;28;20016;-78
2022/10/23 10:16:03;;;;;;;;;;;18.30;99.90;;;;;;5054528;28;19930;-77
2022/10/23 10:18:52;;;;;;;;;;;18.30;99.90;;;;;;5037892;28;20007;-77
2022/10/23 10:21:19;;;;;;;;;;;18.20;99.90;;;;;;5017088;28;20373;-77
2022/10/23 10:23:49;;;;;;;;;;;18.20;99.90;;;;;;5053337;28;20030;-74
2022/10/23 10:26:18;;;;;;;;;;;18.20;99.90;;;;;;5044097;28;20371;-74
2022/10/23 10:28:45;;;;;;;;;;;18.10;99.90;;;;;;5051468;28;19913;-75
2022/10/23 10:31:17;;;;;;;;;;;18.10;99.90;;;;;;5043080;28;19917;-74
2022/10/23 10:33:56;;;;;;;;;;;18.10;99.90;;;;;;5042913;28;19924;-77
2022/10/23 10:36:38;;;;;;;;;;;18.10;99.90;;;;;;5047093;28;19917;-77
2022/10/23 10:39:10;;;;;;;;;;;18.00;99.90;;;;;;5053550;28;20290;-79
2022/10/23 10:41:51;;;;;;;;;;;18.00;99.90;;;;;;5041873;28;19964;-78
2022/10/23 10:44:30;;;;;;;;;;;17.90;99.90;;;;;;5034014;28;19913;-78
2022/10/23 10:46:59;;;;;;;;;;;17.90;99.90;;;;;;5040658;28;19959;-77
2022/10/23 10:49:45;;;;;;;;;;;17.90;99.90;;;;;;5034049;28;19916;-78
2022/10/23 10:52:25;;;;;;;;;;;17.90;99.90;;;;;;5004050;28;19917;-77
2022/10/23 10:54:51;;;;;;;;;;;17.90;99.90;;;;;;5039618;28;19921;-78
2022/10/23 10:57:26;;;;;;;;;;;17.90;99.90;;;;;;5034912;28;19917;-77
2022/10/23 10:59:55;;;;;;;;;;;17.80;99.90;;;;;;5034105;28;20421;-78
2022/10/23 11:02:21;;;;;;;;;;;17.80;99.90;;;;;;5041516;28;19956;-80
2022/10/23 11:04:54;;;;;;;;;;;17.90;99.90;;;;;;5050818;28;19994;-78
2022/10/23 11:07:23;;;;;;;;;;;17.80;99.90;;;;;;5052777;28;19924;-77
2022/10/23 11:09:51;;;;;;;;;;;17.80;99.90;;;;;;5053490;28;19909;-77
2022/10/23 11:12:20;;;;;;;;;;;17.80;99.90;;;;;;5046594;28;19913;-78
2022/10/23 11:14:47;;;;;;;;;;;17.80;99.90;;;;;;5033396;28;20391;-77
2022/10/23 11:17:19;;;;;;;;;;;17.80;99.90;;;;;;5034390;28;20011;-78
2022/10/23 11:19:48;;;;;;;;;;;17.80;99.90;;;;;;5034659;28;19997;-77
2022/10/23 11:22:18;;;;;;;;;;;17.80;99.90;;;;;;5046411;28;19917;-78
2022/10/23 11:25:03;;;;;;;;;;;17.80;99.90;;;;;;5033235;28;19925;-75
2022/10/23 11:27:53;;;;;;;;;;;17.80;99.90;;;;;;5047784;28;20297;-77
2022/10/23 11:30:32;;;;;;;;;;;17.70;99.90;;;;;;5041797;28;20622;-76
2022/10/23 11:33:10;;;;;;;;;;;17.70;99.90;;;;;;5035838;28;20264;-77
2022/10/23 11:35:49;;;;;;;;;;;17.70;99.90;;;;;;5033509;28;19913;-77
2022/10/23 11:38:16;;;;;;;;;;;17.70;99.90;;;;;;5046577;28;19917;-78
2022/10/23 11:40:47;;;;;;;;;;;17.70;99.90;;;;;;5052061;28;20363;-79
2022/10/23 11:43:25;;;;;;;;;;;17.70;99.90;;;;;;5043958;28;19939;-78
2022/10/23 11:45:52;;;;;;;;;;;17.60;99.90;;;;;;5031460;28;20404;-78
2022/10/23 11:48:34;;;;;;;;;;;17.60;99.90;;;;;;5032495;28;19966;-79
2022/10/23 11:51:02;;;;;;;;;;;17.60;99.90;;;;;;5031735;28;19972;-79
2022/10/23 11:53:31;;;;;;;;;;;17.60;99.90;;;;;;5033911;28;19913;-78
2022/10/23 11:56:10;;;;;;;;;;;17.60;99.90;;;;;;5052608;28;20264;-78
2022/10/23 11:58:40;;;;;;;;;;;17.50;99.90;;;;;;5036393;28;19917;-79
2022/10/23 12:01:26;;;;;;;;;;;17.50;99.90;;;;;;5046982;28;20020;-77
2022/10/23 12:03:59;;;;;;;;;;;17.60;99.90;;;;;;5022765;28;20435;-78
2022/10/23 12:06:30;;;;;;;;;;;17.60;99.90;;;;;;5051228;28;20318;-78
2022/10/23 12:08:59;;;;;;;;;;;17.60;99.90;;;;;;5051984;28;19917;-78
2022/10/23 12:11:27;;;;;;;;;;;17.60;99.90;;;;;;5051484;28;19913;-77
2022/10/23 12:13:54;;;;;;;;;;;17.60;99.90;;;;;;5052264;28;19920;-78
2022/10/23 12:16:21;;;;;;;;;;;17.70;99.90;;;;;;5051828;28;19916;-76
2022/10/23 12:18:48;;;;;;;;;;;17.70;99.90;;;;;;5034042;28;19919;-77
2022/10/23 12:21:20;;;;;;;;;;;17.70;99.90;;;;;;5033099;28;19916;-78
2022/10/23 12:23:47;;;;;;;;;;;17.70;99.90;;;;;;5034122;28;20474;-78
2022/10/23 12:26:16;;;;;;;;;;;17.70;99.90;;;;;;5032841;28;19968;-78
2022/10/23 12:28:55;;;;;;;;;;;17.70;99.90;;;;;;5043002;28;19917;-73
2022/10/23 12:31:41;;;;;;;;;;;17.70;99.90;;;;;;5036912;28;19916;-74
2022/10/23 12:34:13;;;;;;;;;;;17.70;99.90;;;;;;5032721;28;20283;-76
2022/10/23 12:36:49;;;;;;;;;;;17.70;99.90;;;;;;5033436;28;20091;-78
2022/10/23 12:39:28;;;;;;;;;;;17.70;99.90;;;;;;5032821;28;20024;-78
2022/10/23 12:41:55;;;;;;;;;;;17.80;99.90;;;;;;5033138;28;19917;-76
2022/10/23 12:44:24;;;;;;;;;;;17.80;99.90;;;;;;5031703;28;19919;-78
2022/10/23 12:46:54;;;;;;;;;;;17.80;99.90;;;;;;5046489;28;19920;-76
2022/10/23 12:49:22;;;;;;;;;;;17.80;99.90;;;;;;5039485;28;20283;-76
2022/10/23 12:51:59;;;;;;;;;;;17.80;99.90;;;;;;5048341;28;20035;-78
2022/10/23 12:54:26;;;;;;;;;;;17.80;99.90;;;;;;5031859;28;20368;-78
2022/10/23 12:56:53;;;;;;;;;;;17.80;99.90;;;;;;5032611;28;19917;-77
2022/10/23 12:59:22;;;;;;;;;;;17.80;99.90;;;;;;5031994;28;19996;-76
2022/10/23 13:01:49;;;;;;;;;;;17.80;99.90;;;;;;5034011;28;20367;-77
2022/10/23 13:04:21;;;;;;;;;;;17.80;99.90;;;;;;5049764;28;20390;-77
2022/10/23 13:06:48;;;;;;;;;;;17.80;99.90;;;;;;5047680;28;19928;-78
2022/10/23 13:09:35;;;;;;;;;;;17.80;99.90;;;;;;5030572;28;19959;-76
2022/10/23 13:12:03;;;;;;;;;;;17.80;99.90;;;;;;5031116;28;19913;-76
2022/10/23 13:14:30;;;;;;;;;;;17.80;99.90;;;;;;5030683;28;19909;-76
2022/10/23 13:17:03;;;;;;;;;;;17.80;99.90;;;;;;5033829;28;19919;-77
2022/10/23 13:19:30;;;;;;;;;;;17.80;99.90;;;;;;5045144;28;19971;-77
2022/10/23 13:21:57;;;;;;;;;;;17.80;99.90;;;;;;5044528;28;19912;-77
2022/10/23 13:24:25;;;;;;;;;;;17.80;99.90;;;;;;5056008;28;19916;-75
2022/10/23 13:26:51;;;;;;;;;;;17.80;99.90;;;;;;5051822;28;20046;-77
2022/10/23 13:29:32;;;;;;;;;;;17.80;99.90;;;;;;5036250;28;19971;-77
2022/10/23 13:32:12;;;;;;;;;;;17.70;99.90;;;;;;5036552;28;19914;-78
2022/10/23 13:34:39;;;;;;;;;;;17.80;99.90;;;;;;5036220;28;20381;-77
2022/10/23 13:37:24;;;;;;;;;;;17.80;99.90;;;;;;5046996;28;19913;-77
2022/10/23 13:40:01;;;;;;;;;;;17.70;99.90;;;;;;5043439;28;19944;-78
2022/10/23 13:42:27;;;;;;;;;;;17.70;99.90;;;;;;5046416;28;20038;-78
2022/10/23 13:44:54;;;;;;;;;;;17.70;99.90;;;;;;5035830;28;19917;-76
2022/10/23 13:47:21;;;;;;;;;;;17.70;99.90;;;;;;5036712;28;20367;-77
2022/10/23 13:49:48;;;;;;;;;;;17.70;99.90;;;;;;5035622;28;19921;-76
2022/10/23 13:52:18;;;;;;;;;;;17.70;99.90;;;;;;5036482;28;20398;-77
2022/10/23 13:54:45;;;;;;;;;;;17.70;99.90;;;;;;5052263;28;19913;-77
2022/10/23 13:57:13;;;;;;;;;;;17.70;99.90;;;;;;5049113;28;20048;-78
2022/10/23 13:59:40;;;;;;;;;;;17.70;99.90;;;;;;5045614;28;20009;-78
2022/10/23 14:02:32;;;;;;;;;;;17.80;99.90;;;;;;5049548;28;20367;-77
2022/10/23 14:04:59;;;;;;;;;;;17.80;99.90;;;;;;5032783;28;20347;-76
2022/10/23 14:07:25;;;;;;;;;;;17.80;99.90;;;;;;5043288;28;19919;-76
2022/10/23 14:09:52;;;;;;;;;;;17.80;99.90;;;;;;5037182;28;19948;-77
2022/10/23 14:12:19;;;;;;;;;;;17.80;99.90;;;;;;5048107;28;19924;-77
2022/10/23 14:14:50;;;;;;;;;;;17.80;99.90;;;;;;5035328;28;19909;-72
2022/10/23 14:17:16;;;;;;;;;;;17.80;99.90;;;;;;5044333;28;19912;-76
2022/10/23 14:19:44;;;;;;;;;;;17.80;99.90;;;;;;5054457;28;19920;-78
2022/10/23 14:22:11;;;;;;;;;;;17.80;99.90;;;;;;5047728;28;19917;-76
2022/10/23 14:24:37;;;;;;;;;;;17.80;99.90;;;;;;5044783;28;19923;-77
2022/10/23 14:27:04;;;;;;;;;;;17.80;99.90;;;;;;5046515;28;19978;-76
2022/10/23 14:29:31;;;;;;;;;;;17.90;99.90;;;;;;5054099;28;19924;-78